createdAt,value
2022-11-27T00:01:21.887Z,97908.03
2022-11-27T00:03:50.018Z,97907.53
2022-11-27T00:06:20.303Z,97903.66
2022-11-27T00:08:48.633Z,97902.31
2022-11-27T00:11:18.855Z,97899.09
2022-11-27T00:13:46.938Z,97901.09
2022-11-27T00:16:15.488Z,97896.25
2022-11-27T00:18:45.206Z,97901.53
2022-11-27T00:21:15.639Z,97892.97
2022-11-27T00:23:43.862Z,97886.53
2022-11-27T00:26:11.883Z,97884.22
2022-11-27T00:28:39.743Z,97884.38
2022-11-27T00:31:13.741Z,97873.75
2022-11-27T00:33:41.573Z,97872.56
2022-11-27T00:36:11.588Z,97875.44
2022-11-27T00:38:39.697Z,97875.72
2022-11-27T00:41:08.254Z,97868.56
2022-11-27T00:43:43.607Z,97862.56
2022-11-27T00:46:12.652Z,97863.72
2022-11-27T00:48:40.260Z,97861.38
2022-11-27T00:51:11.175Z,97856.44
2022-11-27T00:53:38.768Z,97854.06
2022-11-27T00:56:07.028Z,97859.34
2022-11-27T00:58:34.538Z,97855.34
2022-11-27T01:01:03.832Z,97853.81
2022-11-27T01:03:32.903Z,97845.13
2022-11-27T01:06:03.261Z,97851.91
2022-11-27T01:08:32.587Z,97853.56
2022-11-27T01:11:00.609Z,97849.22
2022-11-27T01:13:30.939Z,97846.75
2022-11-27T01:16:01.802Z,97844.16
2022-11-27T01:18:30.383Z,97837.38
2022-11-27T01:20:57.938Z,97816.94
2022-11-27T01:23:26.798Z,97824.19
2022-11-27T01:25:55.758Z,97825.13
2022-11-27T01:28:24.730Z,97819.97
2022-11-27T01:30:52.761Z,97821.59
2022-11-27T01:33:20.961Z,97814.09
2022-11-27T01:35:55.625Z,97813.38
2022-11-27T01:38:23.935Z,97815.47
2022-11-27T01:40:58.976Z,97812.16
2022-11-27T01:43:43.072Z,97820.63
2022-11-27T01:46:28.074Z,97813.56
2022-11-27T01:49:01.214Z,97809.97
2022-11-27T01:51:29.093Z,97803.75
2022-11-27T01:53:57.354Z,97800.22
2022-11-27T01:56:28.614Z,97793.19
2022-11-27T01:58:58.181Z,97795.56
2022-11-27T02:01:26.282Z,97781.72
2022-11-27T02:03:54.216Z,97786.78
2022-11-27T02:06:21.746Z,97775.63
2022-11-27T02:08:49.431Z,97769.75
2022-11-27T02:11:25.275Z,97767.50
2022-11-27T02:14:03.715Z,97756.56
2022-11-27T02:16:37.784Z,97748.09
2022-11-27T02:19:13.601Z,97755.38
2022-11-27T02:21:52.834Z,97749.38
2022-11-27T02:24:39.046Z,97744.09
2022-11-27T02:27:23.176Z,97743.19
2022-11-27T02:29:56.696Z,97739.66
2022-11-27T02:32:28.408Z,97737.06
2022-11-27T02:35:02.431Z,97730.13
2022-11-27T02:37:34.784Z,97729.94
2022-11-27T02:40:07.954Z,97722.91
2022-11-27T02:42:40.552Z,97728.63
2022-11-27T02:45:13.826Z,97727.59
2022-11-27T02:47:43.892Z,97724.91
2022-11-27T02:50:16.274Z,97721.50
2022-11-27T02:52:46.258Z,97720.69
2022-11-27T02:55:17.989Z,97715.63
2022-11-27T02:57:47.171Z,97715.63
2022-11-27T03:00:17.241Z,97717.25
2022-11-27T03:02:49.737Z,97712.78
2022-11-27T03:05:20.963Z,97716.22
2022-11-27T03:07:55.163Z,97709.19
2022-11-27T03:10:30.827Z,97706.47
2022-11-27T03:12:59.531Z,97706.47
2022-11-27T03:15:35.570Z,97707.28
2022-11-27T03:18:12.756Z,97705.56
2022-11-27T03:20:44.599Z,97701.09
2022-11-27T03:23:12.147Z,97706.84
2022-11-27T03:25:39.685Z,97703.34
2022-11-27T03:28:11.446Z,97700.75
2022-11-27T03:30:41.414Z,97697.34
2022-11-27T03:33:09.018Z,97694.88
2022-11-27T03:35:36.570Z,97694.06
2022-11-27T03:38:04.317Z,97697.47
2022-11-27T03:40:43.658Z,97695.69
2022-11-27T03:43:15.253Z,97700.03
2022-11-27T03:45:53.662Z,97706.84
2022-11-27T03:48:27.285Z,97707.69
2022-11-27T03:51:05.030Z,97700.59
2022-11-27T03:53:45.341Z,97702.38
2022-11-27T03:56:19.161Z,97696.28
2022-11-27T03:58:51.538Z,97704.03
2022-11-27T04:01:24.220Z,97698.75
2022-11-27T04:03:52.012Z,97700.41
2022-11-27T04:06:19.772Z,97696.06
2022-11-27T04:08:48.034Z,97688.31
2022-11-27T04:11:16.295Z,97688.31
2022-11-27T04:13:43.939Z,97692.75
2022-11-27T04:16:11.597Z,97690.41
2022-11-27T04:18:40.523Z,97704.50
2022-11-27T04:21:08.068Z,97697.66
2022-11-27T04:23:37.608Z,97701.31
2022-11-27T04:26:05.452Z,97711.78
2022-11-27T04:28:33.287Z,97706.00
2022-11-27T04:31:00.841Z,97705.63
2022-11-27T04:33:28.404Z,97709.38
2022-11-27T04:35:57.301Z,97703.75
2022-11-27T04:38:25.011Z,97708.91
2022-11-27T04:40:52.686Z,97700.22
2022-11-27T04:43:20.322Z,97707.84
2022-11-27T04:45:47.835Z,97702.56
2022-11-27T04:48:15.452Z,97710.28
2022-11-27T04:50:43.059Z,97717.22
2022-11-27T04:53:11.944Z,97712.41
2022-11-27T04:55:39.461Z,97710.88
2022-11-27T04:58:07.046Z,97710.16
2022-11-27T05:00:34.613Z,97718.72
2022-11-27T05:03:02.238Z,97707.69
2022-11-27T05:05:29.857Z,97711.22
2022-11-27T05:07:57.411Z,97709.34
2022-11-27T05:10:26.405Z,97705.81
2022-11-27T05:12:53.979Z,97706.97
2022-11-27T05:15:21.654Z,97711.91
2022-11-27T05:17:49.233Z,97708.34
2022-11-27T05:20:16.913Z,97695.28
2022-11-27T05:22:46.092Z,97693.84
2022-11-27T05:25:13.676Z,97686.31
2022-11-27T05:27:42.608Z,97696.53
2022-11-27T05:30:10.589Z,97687.84
2022-11-27T05:32:38.686Z,97683.41
2022-11-27T05:35:07.043Z,97676.63
2022-11-27T05:37:34.542Z,97667.94
2022-11-27T05:40:02.030Z,97665.34
2022-11-27T05:42:29.553Z,97665.34
2022-11-27T05:44:58.790Z,97662.56
2022-11-27T05:47:26.548Z,97665.00
2022-11-27T05:49:54.403Z,97669.25
2022-11-27T05:52:21.942Z,97664.91
2022-11-27T05:54:49.502Z,97660.56
2022-11-27T05:57:17.061Z,97659.41
2022-11-27T05:59:44.650Z,97661.88
2022-11-27T06:02:19.540Z,97658.25
2022-11-27T06:04:49.216Z,97657.91
2022-11-27T06:07:16.865Z,97662.97
2022-11-27T06:09:44.478Z,97650.78
2022-11-27T06:12:12.054Z,97658.41
2022-11-27T06:14:39.822Z,97648.91
2022-11-27T06:17:07.535Z,97649.72
2022-11-27T06:19:36.427Z,97649.72
2022-11-27T06:22:03.951Z,97653.00
2022-11-27T06:24:31.464Z,97651.38
2022-11-27T06:26:58.961Z,97651.38
2022-11-27T06:29:26.489Z,97651.25
2022-11-27T06:31:54.054Z,97645.16
2022-11-27T06:34:21.676Z,97634.94
2022-11-27T06:36:51.125Z,97646.22
2022-11-27T06:39:18.710Z,97646.44
2022-11-27T06:41:46.313Z,97643.13
2022-11-27T06:44:13.842Z,97638.78
2022-11-27T06:46:41.448Z,97631.75
2022-11-27T06:49:09.006Z,97631.53
2022-11-27T06:51:36.598Z,97629.06
2022-11-27T06:54:05.819Z,97625.66
2022-11-27T06:56:33.504Z,97625.06
2022-11-27T06:59:02.390Z,97624.25
2022-11-27T07:01:31.613Z,97625.06
2022-11-27T07:03:59.508Z,97632.00
2022-11-27T07:06:28.243Z,97633.03
2022-11-27T07:08:56.320Z,97627.88
2022-11-27T07:11:27.591Z,97624.50
2022-11-27T07:13:56.997Z,97625.31
2022-11-27T07:16:25.038Z,97628.94
2022-11-27T07:18:54.561Z,97632.78
2022-11-27T07:21:22.655Z,97639.09
2022-11-27T07:23:50.190Z,97631.59
2022-11-27T07:26:19.426Z,97640.59
2022-11-27T07:28:49.048Z,97636.72
2022-11-27T07:31:18.981Z,97630.97
2022-11-27T07:33:46.578Z,97634.59
2022-11-27T07:36:16.317Z,97633.16
2022-11-27T07:38:44.234Z,97633.25
2022-11-27T07:41:12.510Z,97629.06
2022-11-27T07:43:40.833Z,97622.84
2022-11-27T07:46:12.816Z,97617.34
2022-11-27T07:48:40.481Z,97612.66
2022-11-27T07:51:09.042Z,97611.50
2022-11-27T07:53:37.403Z,97615.63
2022-11-27T07:56:05.411Z,97614.47
2022-11-27T07:58:33.177Z,97616.59
2022-11-27T08:01:00.843Z,97618.00
2022-11-27T08:03:29.812Z,97618.00
2022-11-27T08:05:57.326Z,97614.72
2022-11-27T08:08:25.894Z,97614.72
2022-11-27T08:10:53.426Z,97619.06
2022-11-27T08:13:21.121Z,97620.94
2022-11-27T08:15:49.377Z,97620.31
2022-11-27T08:18:17.819Z,97615.16
2022-11-27T08:21:03.765Z,97611.66
2022-11-27T08:23:32.691Z,97601.44
2022-11-27T08:26:00.329Z,97601.56
2022-11-27T08:28:40.465Z,97594.78
2022-11-27T08:31:15.849Z,97596.63
2022-11-27T08:34:25.771Z,97581.16
2022-11-27T08:41:37.313Z,97589.38
2022-11-27T08:44:15.857Z,97591.94
2022-11-27T08:46:55.626Z,97597.94
2022-11-27T08:49:46.993Z,97589.38
2022-11-27T08:52:33.110Z,97597.44
2022-11-27T08:55:00.731Z,97601.09
2022-11-27T08:57:28.317Z,97595.81
2022-11-27T08:59:59.598Z,97586.94
2022-11-27T09:02:27.186Z,97596.19
2022-11-27T09:04:54.731Z,97594.06
2022-11-27T09:07:23.667Z,97589.19
2022-11-27T09:09:51.311Z,97586.25
2022-11-27T09:12:18.937Z,97582.59
2022-11-27T09:14:46.535Z,97573.00
2022-11-27T09:17:14.155Z,97577.44
2022-11-27T09:19:41.755Z,97580.75
2022-11-27T09:22:09.389Z,97576.28
2022-11-27T09:24:38.822Z,97569.16
2022-11-27T09:27:06.710Z,97569.59
2022-11-27T09:29:35.384Z,97575.00
2022-11-27T09:32:03.045Z,97571.84
2022-11-27T09:34:36.027Z,97567.84
2022-11-27T09:37:05.311Z,97574.19
2022-11-27T09:39:33.834Z,97581.34
2022-11-27T09:42:05.967Z,97584.41
2022-11-27T09:44:40.024Z,97576.66
2022-11-27T09:47:15.516Z,97579.69
2022-11-27T09:49:46.753Z,97572.78
2022-11-27T09:52:21.244Z,97564.44
2022-11-27T09:54:55.422Z,97560.09
2022-11-27T09:57:29.341Z,97550.22
2022-11-27T10:00:00.998Z,97529.78
2022-11-27T10:02:31.966Z,97527.88
2022-11-27T10:05:17.630Z,97525.72
2022-11-27T10:08:04.714Z,97520.47
2022-11-27T10:10:41.039Z,97513.53
2022-11-27T10:13:24.048Z,97516.25
2022-11-27T10:15:55.407Z,97517.88
2022-11-27T10:18:33.232Z,97510.09
2022-11-27T10:21:08.668Z,97510.50
2022-11-27T10:23:46.875Z,97501.88
2022-11-27T10:26:19.816Z,97492.66
2022-11-27T10:28:57.650Z,97492.66
2022-11-27T10:31:36.376Z,97485.00
2022-11-27T10:34:08.193Z,97476.47
2022-11-27T10:36:39.919Z,97467.78
2022-11-27T10:39:14.895Z,97470.81
2022-11-27T10:41:52.748Z,97466.34
2022-11-27T10:44:30.864Z,97464.59
2022-11-27T10:47:03.502Z,97467.38
2022-11-27T10:49:31.819Z,97469.50
2022-11-27T10:52:00.181Z,97454.47
2022-11-27T10:54:32.286Z,97453.41
2022-11-27T10:57:36.418Z,97455.97
2022-11-27T11:00:15.138Z,97459.66
2022-11-27T11:02:42.992Z,97449.53
2022-11-27T11:08:18.299Z,97443.44
2022-11-27T11:10:53.577Z,97443.03
2022-11-27T11:13:23.604Z,97436.53
2022-11-27T11:15:56.252Z,97433.44
2022-11-27T11:18:25.901Z,97436.78
2022-11-27T11:20:56.589Z,97436.16
2022-11-27T11:23:28.870Z,97441.88
2022-11-27T11:25:59.345Z,97422.28
2022-11-27T11:28:27.500Z,97427.34
2022-11-27T11:31:02.145Z,97427.50
2022-11-27T11:33:30.334Z,97423.31
2022-11-27T11:36:08.440Z,97418.41
2022-11-27T11:38:38.056Z,97426.56
2022-11-27T11:41:07.841Z,97410.59
2022-11-27T11:43:37.464Z,97420.03
2022-11-27T11:46:18.579Z,97407.63
2022-11-27T11:48:57.368Z,97405.50
2022-11-27T11:51:41.403Z,97399.75
2022-11-27T11:54:20.725Z,97390.44
2022-11-27T11:56:52.705Z,97388.13
2022-11-27T11:59:31.281Z,97388.28
2022-11-27T12:02:27.334Z,97384.09
2022-11-27T12:05:12.448Z,97382.19
2022-11-27T12:07:53.751Z,97381.69
2022-11-27T12:10:29.077Z,97366.16
2022-11-27T12:13:05.897Z,97373.97
2022-11-27T12:15:40.471Z,97363.00
2022-11-27T12:18:19.240Z,97361.63
2022-11-27T12:21:12.259Z,97347.19
2022-11-27T12:23:54.406Z,97344.28
2022-11-27T12:26:30.008Z,97335.06
2022-11-27T12:29:10.305Z,97347.13
2022-11-27T12:31:53.044Z,97343.91
2022-11-27T12:34:34.854Z,97328.59
2022-11-27T12:37:16.757Z,97334.47
2022-11-27T12:39:58.786Z,97330.47
2022-11-27T12:42:31.620Z,97320.25
2022-11-27T12:45:04.868Z,97317.16
2022-11-27T12:47:40.382Z,97303.94
2022-11-27T12:50:18.779Z,97304.41
2022-11-27T12:52:52.006Z,97301.84
2022-11-27T12:55:25.344Z,97303.53
2022-11-27T12:57:58.691Z,97296.88
2022-11-27T13:00:29.316Z,97291.31
2022-11-27T13:03:06.378Z,97296.94
2022-11-27T13:05:44.447Z,97286.16
2022-11-27T13:08:16.757Z,97287.34
2022-11-27T13:10:50.095Z,97287.72
2022-11-27T13:13:23.019Z,97286.78
2022-11-27T13:15:57.177Z,97275.03
2022-11-27T13:18:33.553Z,97274.50
2022-11-27T13:21:06.717Z,97273.59
2022-11-27T13:23:35.294Z,97274.09
2022-11-27T13:26:07.338Z,97275.34
2022-11-27T13:28:42.901Z,97276.28
2022-11-27T13:31:19.423Z,97279.06
2022-11-27T13:33:48.398Z,97290.25
2022-11-27T13:36:23.030Z,97282.16
2022-11-27T13:38:58.196Z,97288.56
2022-11-27T13:41:33.363Z,97283.63
2022-11-27T13:44:01.589Z,97279.78
2022-11-27T13:46:31.479Z,97281.41
2022-11-27T13:49:03.033Z,97280.72
2022-11-27T13:51:34.125Z,97274.84
2022-11-27T13:54:10.052Z,97264.66
2022-11-27T13:56:37.889Z,97255.16
2022-11-27T13:59:16.493Z,97264.19
2022-11-27T14:01:55.098Z,97259.13
2022-11-27T14:04:22.719Z,97243.75
2022-11-27T14:06:57.041Z,97240.91
2022-11-27T14:09:34.272Z,97250.19
2022-11-27T14:12:01.849Z,97246.91
2022-11-27T14:14:29.947Z,97250.34
2022-11-27T14:16:59.080Z,97238.75
2022-11-27T14:19:34.580Z,97244.56
2022-11-27T14:22:15.538Z,97244.44
2022-11-27T14:24:45.839Z,97239.00
2022-11-27T14:27:19.714Z,97227.72
2022-11-27T14:29:47.661Z,97231.81
2022-11-27T14:32:17.041Z,97225.28
2022-11-27T14:34:44.914Z,97222.56
2022-11-27T14:37:24.318Z,97223.53
2022-11-27T14:39:51.878Z,97226.84
2022-11-27T14:42:27.886Z,97222.59
2022-11-27T14:45:07.913Z,97220.16
2022-11-27T14:47:36.575Z,97228.03
2022-11-27T14:50:04.614Z,97211.97
2022-11-27T14:52:33.793Z,97214.69
2022-11-27T14:55:03.225Z,97207.72
2022-11-27T14:57:31.759Z,97203.22
2022-11-27T15:00:05.856Z,97208.38
2022-11-27T15:02:33.603Z,97202.63
2022-11-27T15:05:06.992Z,97204.25
2022-11-27T15:07:45.212Z,97193.63
2022-11-27T15:10:35.639Z,97182.47
2022-11-27T15:13:04.615Z,97183.50
2022-11-27T15:15:35.584Z,97184.03
2022-11-27T15:18:07.247Z,97163.75
2022-11-27T15:20:39.209Z,97178.25
2022-11-27T15:23:17.329Z,97172.22
2022-11-27T15:25:47.363Z,97174.09
2022-11-27T15:28:28.840Z,97164.66
2022-11-27T15:30:57.733Z,97155.94
2022-11-27T15:33:27.485Z,97147.75
2022-11-27T15:35:56.831Z,97142.00
2022-11-27T15:38:25.728Z,97130.31
2022-11-27T15:41:01.633Z,97126.34
2022-11-27T15:43:29.270Z,97113.00
2022-11-27T15:45:56.964Z,97104.25
2022-11-27T15:48:24.616Z,97104.53
2022-11-27T15:50:52.218Z,97100.41
2022-11-27T15:53:19.914Z,97090.09
2022-11-27T15:55:48.805Z,97089.84
2022-11-27T15:58:16.709Z,97073.41
2022-11-27T16:00:44.288Z,97075.31
2022-11-27T16:03:13.175Z,97072.41
2022-11-27T16:05:40.954Z,97064.25
2022-11-27T16:08:11.673Z,97068.59
2022-11-27T16:10:40.482Z,97059.09
2022-11-27T16:13:09.359Z,97064.63
2022-11-27T16:15:36.927Z,97075.56
2022-11-27T16:18:04.837Z,97077.63
2022-11-27T16:20:32.426Z,97073.06
2022-11-27T16:22:59.914Z,97066.66
2022-11-27T16:25:27.413Z,97068.94
2022-11-27T16:28:00.984Z,97069.06
2022-11-27T16:30:31.555Z,97073.53
2022-11-27T16:32:59.096Z,97071.88
2022-11-27T16:35:26.903Z,97059.66
2022-11-27T16:37:54.391Z,97062.13
2022-11-27T16:40:21.977Z,97069.97
2022-11-27T16:42:49.497Z,97075.97
2022-11-27T16:45:17.138Z,97083.84
2022-11-27T16:47:45.969Z,97074.59
2022-11-27T16:50:13.469Z,97080.81
2022-11-27T16:52:41.004Z,97071.81
2022-11-27T16:55:10.453Z,97070.03
2022-11-27T16:57:38.001Z,97069.22
2022-11-27T17:00:07.025Z,97070.31
2022-11-27T17:02:35.647Z,97072.88
2022-11-27T17:05:04.623Z,97076.16
2022-11-27T17:07:32.217Z,97079.53
2022-11-27T17:09:59.782Z,97080.34
2022-11-27T17:12:27.344Z,97085.50
2022-11-27T17:14:54.915Z,97082.13
2022-11-27T17:17:22.422Z,97086.47
2022-11-27T17:19:49.994Z,97076.97
2022-11-27T17:22:18.816Z,97072.38
2022-11-27T17:24:46.344Z,97072.38
2022-11-27T17:27:14.699Z,97058.09
2022-11-27T17:29:42.602Z,97054.72
2022-11-27T17:32:12.848Z,97050.38
2022-11-27T17:34:40.419Z,97046.84
2022-11-27T17:37:07.976Z,97041.56
2022-11-27T17:39:36.908Z,97022.69
2022-11-27T17:42:06.696Z,97014.69
2022-11-27T17:44:38.673Z,97017.28
2022-11-27T17:47:06.335Z,97003.69
2022-11-27T17:49:33.883Z,97004.66
2022-11-27T17:52:06.148Z,97002.06
2022-11-27T17:54:37.470Z,97008.97
2022-11-27T17:57:05.087Z,96999.50
2022-11-27T17:59:32.625Z,96989.19
2022-11-27T18:02:00.272Z,96985.75
2022-11-27T18:04:30.713Z,96992.56
2022-11-27T18:06:58.443Z,96987.28
2022-11-27T18:09:26.109Z,96976.72
2022-11-27T18:11:55.940Z,96971.81
2022-11-27T18:14:23.466Z,96969.25
2022-11-27T18:16:51.073Z,96977.91
2022-11-27T18:19:18.657Z,96968.28
2022-11-27T18:21:46.234Z,96971.94
2022-11-27T18:24:29.184Z,96966.22
2022-11-27T18:27:13.536Z,96969.63
2022-11-27T18:29:44.535Z,96962.72
2022-11-27T18:32:13.765Z,96964.31
2022-11-27T18:34:47.148Z,96955.66
2022-11-27T18:37:14.936Z,96959.06
2022-11-27T18:39:44.505Z,96956.34
2022-11-27T18:42:14.231Z,96955.41
2022-11-27T18:44:44.986Z,96953.50
2022-11-27T18:47:13.231Z,96959.47
2022-11-27T18:49:41.332Z,96964.50
2022-11-27T18:52:10.411Z,96957.59
2022-11-27T18:54:38.129Z,96951.63
2022-11-27T18:57:06.886Z,96952.56
2022-11-27T18:59:35.838Z,96945.78
2022-11-27T19:02:04.461Z,96937.34
2022-11-27T19:04:32.139Z,96928.22
2022-11-27T19:06:59.654Z,96927.81
2022-11-27T19:09:27.202Z,96915.16
2022-11-27T19:11:54.695Z,96913.53
2022-11-27T19:14:22.195Z,96907.69
2022-11-27T19:16:51.172Z,96906.19
2022-11-27T19:22:09.345Z,96907.81
2022-11-27T19:24:37.969Z,96902.81
2022-11-27T19:27:05.506Z,96896.97
2022-11-27T19:29:33.038Z,96882.56
2022-11-27T19:32:02.002Z,96881.72
2022-11-27T19:34:29.662Z,96875.75
2022-11-27T19:36:58.118Z,96884.31
2022-11-27T19:39:26.849Z,96879.84
2022-11-27T19:41:54.406Z,96885.81
2022-11-27T19:44:22.064Z,96869.53
2022-11-27T19:46:49.623Z,96868.72
2022-11-27T19:49:19.118Z,96859.50
2022-11-27T19:51:47.189Z,96845.22
2022-11-27T19:54:15.770Z,96847.22
2022-11-27T19:56:44.019Z,96848.31
2022-11-27T19:59:12.812Z,96838.50
2022-11-27T20:01:41.280Z,96836.19
2022-11-27T20:04:11.231Z,96835.25
2022-11-27T20:06:41.008Z,96830.09
2022-11-27T20:09:13.488Z,96820.63
2022-11-27T20:11:41.003Z,96820.47
2022-11-27T20:14:08.579Z,96823.03
2022-11-27T20:16:37.305Z,96813.59
2022-11-27T20:19:06.596Z,96809.13
2022-11-27T20:21:34.297Z,96804.63
2022-11-27T20:24:03.417Z,96799.75
2022-11-27T20:26:31.390Z,96785.59
2022-11-27T20:28:59.817Z,96792.91
2022-11-27T20:31:29.470Z,96779.59
2022-11-27T20:33:58.833Z,96791.00
2022-11-27T20:36:26.670Z,96791.09
2022-11-27T20:38:55.459Z,96796.13
2022-11-27T20:41:24.694Z,96803.72
2022-11-27T20:43:56.631Z,96807.25
2022-11-27T20:46:24.847Z,96800.22
2022-11-27T20:48:54.028Z,96809.56
2022-11-27T20:51:23.942Z,96811.91
2022-11-27T20:53:51.449Z,96805.66
2022-11-27T20:56:21.407Z,96814.09
2022-11-27T20:58:50.317Z,96808.78
2022-11-27T21:01:19.692Z,96800.00
2022-11-27T21:03:49.203Z,96806.78
2022-11-27T21:06:18.917Z,96808.16
2022-11-27T21:08:46.784Z,96809.53
2022-11-27T21:11:18.224Z,96805.59
2022-11-27T21:13:45.790Z,96803.59
2022-11-27T21:16:15.419Z,96792.22
2022-11-27T21:18:42.940Z,96794.66
2022-11-27T21:21:13.301Z,96794.78
2022-11-27T21:23:42.243Z,96802.50
2022-11-27T21:26:11.713Z,96806.06
2022-11-27T21:28:39.388Z,96797.34
2022-11-27T21:31:09.179Z,96788.94
2022-11-27T21:33:38.534Z,96795.97
2022-11-27T21:36:06.567Z,96794.94
2022-11-27T21:38:34.103Z,96776.91
2022-11-27T21:41:01.632Z,96763.44
2022-11-27T21:43:29.174Z,96755.03
2022-11-27T21:45:56.725Z,96745.91
2022-11-27T21:48:24.460Z,96745.78
2022-11-27T21:50:53.357Z,96736.28
2022-11-27T21:53:20.965Z,96733.72
2022-11-27T21:55:48.486Z,96726.78
2022-11-27T21:58:16.033Z,96725.97
2022-11-27T22:00:43.702Z,96733.59
2022-11-27T22:03:11.236Z,96724.22
2022-11-27T22:05:38.737Z,96725.19
2022-11-27T22:08:07.679Z,96710.78
2022-11-27T22:10:35.226Z,96720.53
2022-11-27T22:13:02.788Z,96722.44
2022-11-27T22:15:30.308Z,96721.34
2022-11-27T22:17:58.783Z,96712.00
2022-11-27T22:20:26.329Z,96714.59
2022-11-27T22:22:53.849Z,96712.00
2022-11-27T22:25:22.726Z,96707.38
2022-11-27T22:27:50.265Z,96713.38
2022-11-27T22:30:18.422Z,96715.69
2022-11-27T22:32:45.981Z,96727.34
2022-11-27T22:35:13.467Z,96722.88
2022-11-27T22:37:41.002Z,96719.22
2022-11-27T22:40:09.274Z,96716.53
2022-11-27T22:42:38.497Z,96724.78
2022-11-27T22:45:07.506Z,96716.00
2022-11-27T22:47:35.049Z,96720.06
2022-11-27T22:50:02.973Z,96730.50
2022-11-27T22:52:30.525Z,96729.00
2022-11-27T22:54:58.030Z,96726.56
2022-11-27T22:57:25.735Z,96716.53
2022-11-27T22:59:54.552Z,96716.09
2022-11-27T23:02:22.479Z,96725.72
2022-11-27T23:04:50.159Z,96736.03
2022-11-27T23:07:22.273Z,96725.31
2022-11-27T23:09:52.406Z,96723.94
2022-11-27T23:12:19.933Z,96723.50
2022-11-27T23:14:47.483Z,96727.19
2022-11-27T23:17:16.336Z,96713.59
2022-11-27T23:19:43.885Z,96701.53
2022-11-27T23:22:11.394Z,96701.53
2022-11-27T23:24:39.294Z,96692.03
2022-11-27T23:27:07.009Z,96688.38
2022-11-27T23:29:34.540Z,96683.78
2022-11-27T23:32:02.078Z,96677.81
2022-11-27T23:34:30.946Z,96682.84
2022-11-27T23:36:58.444Z,96678.50
2022-11-27T23:39:25.990Z,96673.88
2022-11-27T23:41:53.550Z,96662.78
2022-11-27T23:44:21.574Z,96653.81
2022-11-27T23:46:49.142Z,96654.88
2022-11-27T23:49:16.651Z,96667.91
2022-11-27T23:51:45.493Z,96658.53
2022-11-27T23:54:13.471Z,96654.88
2022-11-27T23:56:42.995Z,96665.06
2022-11-27T23:59:10.770Z,96663.16
